createdAt,value
2022-07-29T06:27:46.822Z,98881.78
2022-07-29T06:30:16.470Z,98892.66
2022-07-29T06:32:45.773Z,98863.47
2022-07-29T06:35:38.765Z,98866.81
2022-07-29T06:38:12.008Z,98841.03
2022-07-29T06:41:07.309Z,98900.63
2022-07-29T06:43:50.570Z,98843.78
2022-07-29T06:46:23.222Z,98886.00
2022-07-29T06:48:53.656Z,98898.44
2022-07-29T06:51:25.629Z,98894.81
2022-07-29T06:53:58.207Z,98897.06
2022-07-29T06:56:29.461Z,98893.66
2022-07-29T06:59:00.225Z,98885.69
2022-07-29T07:01:30.928Z,98882.34
2022-07-29T07:04:00.232Z,98878.34
2022-07-29T07:06:32.248Z,98868.44
2022-07-29T07:09:01.488Z,98862.00
2022-07-29T07:11:32.049Z,98885.06
2022-07-29T07:14:04.163Z,98862.50
2022-07-29T07:16:34.019Z,98877.19
2022-07-29T07:19:03.624Z,98875.00
2022-07-29T07:21:33.085Z,98867.72
2022-07-29T07:24:02.691Z,98883.78
2022-07-29T07:26:31.880Z,98873.91
2022-07-29T07:29:02.629Z,98877.19
2022-07-29T07:31:32.010Z,98862.97
2022-07-29T07:34:01.353Z,98858.50
2022-07-29T07:36:30.647Z,98869.66
2022-07-29T07:38:59.858Z,98859.25
2022-07-29T07:41:32.411Z,98865.03
2022-07-29T07:44:05.615Z,98861.69
2022-07-29T07:46:34.767Z,98862.22
2022-07-29T07:49:03.946Z,98864.78
2022-07-29T07:51:33.548Z,98857.50
2022-07-29T07:54:04.526Z,98857.50
2022-07-29T07:56:35.384Z,98821.47
2022-07-29T07:59:06.303Z,98831.22
2022-07-29T08:01:54.957Z,98832.38
2022-07-29T08:04:28.252Z,98860.38
2022-07-29T08:06:59.073Z,98859.03
2022-07-29T08:09:32.478Z,98851.22
2022-07-29T08:12:03.734Z,98865.91
2022-07-29T08:14:35.577Z,98860.25
2022-07-29T08:17:04.803Z,98804.06
2022-07-29T08:19:34.230Z,98853.09
2022-07-29T08:22:03.523Z,98840.06
2022-07-29T08:24:54.844Z,98819.56
2022-07-29T08:27:42.831Z,98854.94
2022-07-29T08:30:18.567Z,98850.25
2022-07-29T08:32:55.655Z,98756.44
2022-07-29T08:35:26.312Z,98793.56
2022-07-29T08:37:56.231Z,98840.56
2022-07-29T08:40:32.137Z,98778.78
2022-07-29T08:43:02.594Z,98815.53
2022-07-29T08:45:37.883Z,98814.41
2022-07-29T08:48:07.560Z,98837.50
2022-07-29T08:50:41.035Z,98835.28
2022-07-29T08:53:13.543Z,98847.56
2022-07-29T08:55:45.465Z,98776.25
2022-07-29T08:58:15.955Z,98839.72
2022-07-29T09:00:49.161Z,98842.91
2022-07-29T09:03:21.290Z,98829.44
2022-07-29T09:05:52.429Z,98826.91
2022-07-29T09:08:22.901Z,98817.03
2022-07-29T09:10:52.724Z,98811.22
2022-07-29T09:13:22.049Z,98819.78
2022-07-29T09:15:53.003Z,98818.09
2022-07-29T09:18:37.662Z,98798.91
2022-07-29T09:21:24.538Z,98819.75
2022-07-29T09:24:05.016Z,98792.38
2022-07-29T09:26:35.766Z,98790.06
2022-07-29T09:29:12.644Z,98810.38
2022-07-29T09:31:47.170Z,98784.00
2022-07-29T09:34:18.461Z,98804.38
2022-07-29T09:36:49.420Z,98785.97
2022-07-29T09:39:29.602Z,98789.25
2022-07-29T09:42:00.917Z,98775.00
2022-07-29T09:44:43.964Z,98796.78
2022-07-29T09:47:19.008Z,98779.72
2022-07-29T09:49:56.651Z,98788.03
2022-07-29T09:52:27.387Z,98802.03
2022-07-29T09:55:07.040Z,98720.31
2022-07-29T09:57:37.399Z,98815.91
2022-07-29T10:00:17.267Z,98743.56
2022-07-29T10:02:53.901Z,98749.78
2022-07-29T10:05:36.044Z,98744.78
2022-07-29T10:08:07.473Z,98793.72
2022-07-29T10:10:38.678Z,98792.66
2022-07-29T10:13:15.399Z,98735.84
2022-07-29T10:15:47.793Z,98703.19
2022-07-29T10:18:21.147Z,98756.13
2022-07-29T10:20:52.257Z,98776.66
2022-07-29T10:23:22.552Z,98706.84
2022-07-29T10:25:51.899Z,98710.44
2022-07-29T10:28:26.555Z,98765.69
2022-07-29T10:31:02.168Z,98784.44
2022-07-29T10:33:48.004Z,98785.28
2022-07-29T10:36:44.375Z,98794.69
2022-07-29T10:39:34.403Z,98752.47
2022-07-29T10:42:20.370Z,98777.91
2022-07-29T10:45:05.559Z,98706.38
2022-07-29T10:47:35.702Z,98725.63
2022-07-29T10:50:24.129Z,98695.50
2022-07-29T10:52:59.678Z,98650.69
2022-07-29T10:55:43.340Z,98650.63
2022-07-29T10:58:32.197Z,98652.00
2022-07-29T11:01:41.004Z,98700.94
2022-07-29T11:04:43.668Z,98706.47
2022-07-29T11:07:21.335Z,98723.78
2022-07-29T11:10:51.086Z,98667.97
2022-07-29T11:13:49.819Z,98767.66
2022-07-29T11:16:25.969Z,98698.66
2022-07-29T11:19:30.364Z,98758.56
2022-07-29T11:22:01.662Z,98642.13
2022-07-29T11:24:50.113Z,98730.25
2022-07-29T11:27:28.687Z,98778.13
2022-07-29T11:30:03.248Z,98769.66
2022-07-29T11:32:40.434Z,98726.41
2022-07-29T11:35:19.278Z,98748.38
2022-07-29T11:38:45.437Z,98741.63
2022-07-29T11:41:31.859Z,98751.44
2022-07-29T11:44:03.173Z,98697.56
2022-07-29T11:46:50.532Z,98705.88
2022-07-29T11:49:32.325Z,98723.06
2022-07-29T11:52:04.837Z,98731.50
2022-07-29T11:54:57.996Z,98770.50
2022-07-29T11:57:37.400Z,98704.47
2022-07-29T12:00:18.651Z,98693.91
2022-07-29T12:03:02.893Z,98734.97
2022-07-29T12:05:51.743Z,98757.22
2022-07-29T12:08:23.310Z,98670.59
2022-07-29T12:10:54.505Z,98671.84
2022-07-29T12:13:49.233Z,98728.31
2022-07-29T12:16:25.595Z,98731.34
2022-07-29T12:19:02.484Z,98694.47
2022-07-29T12:21:53.785Z,98748.72
2022-07-29T12:24:27.427Z,98741.00
2022-07-29T12:26:59.695Z,98781.13
2022-07-29T12:29:36.789Z,98741.28
2022-07-29T12:32:14.409Z,98715.59
2022-07-29T12:34:45.122Z,98776.97
2022-07-29T12:37:35.773Z,98650.44
2022-07-29T12:40:14.066Z,98677.63
2022-07-29T12:42:43.610Z,98714.53
2022-07-29T12:45:19.269Z,98707.44
2022-07-29T12:47:55.180Z,98777.63
2022-07-29T12:50:26.463Z,98788.25
2022-07-29T12:52:55.969Z,98771.19
2022-07-29T12:55:50.387Z,98791.56
2022-07-29T12:58:30.389Z,98779.78
2022-07-29T13:01:17.321Z,98766.84
2022-07-29T13:03:56.719Z,98751.63
2022-07-29T13:06:41.693Z,98766.13
2022-07-29T13:09:13.554Z,98763.63
2022-07-29T13:11:58.775Z,98778.25
2022-07-29T13:14:35.712Z,98690.56
2022-07-29T13:17:08.938Z,98764.66
2022-07-29T13:19:41.745Z,98777.94
2022-07-29T13:22:11.768Z,98752.97
2022-07-29T13:24:54.024Z,98788.34
2022-07-29T13:27:24.812Z,98785.44
2022-07-29T13:29:55.017Z,98784.78
2022-07-29T13:32:27.934Z,98776.25
2022-07-29T13:34:58.480Z,98786.44
2022-07-29T13:37:30.995Z,98790.00
2022-07-29T13:40:02.668Z,98778.31
2022-07-29T13:42:32.164Z,98789.28
2022-07-29T13:45:01.742Z,98782.75
2022-07-29T13:47:33.368Z,98778.75
2022-07-29T13:50:03.348Z,98803.31
2022-07-29T13:52:34.823Z,98780.25
2022-07-29T13:55:04.605Z,98799.88
2022-07-29T13:57:33.839Z,98765.41
2022-07-29T14:00:03.037Z,98783.81
2022-07-29T14:02:34.879Z,98793.38
2022-07-29T14:05:08.258Z,98811.53
2022-07-29T14:07:38.127Z,98771.72
2022-07-29T14:10:08.278Z,98794.22
2022-07-29T14:12:37.702Z,98804.16
2022-07-29T14:15:07.961Z,98790.03
2022-07-29T14:17:38.781Z,98820.16
2022-07-29T14:20:08.982Z,98819.56
2022-07-29T14:22:42.408Z,98803.66
2022-07-29T14:25:15.040Z,98800.94
2022-07-29T14:27:45.169Z,98815.53
2022-07-29T14:30:15.550Z,98791.41
2022-07-29T14:32:46.306Z,98797.59
2022-07-29T14:35:15.580Z,98828.28
2022-07-29T14:37:44.924Z,98794.47
2022-07-29T14:40:14.709Z,98787.31
2022-07-29T14:42:44.065Z,98818.78
2022-07-29T14:45:13.564Z,98834.19
2022-07-29T14:47:42.733Z,98823.06
2022-07-29T14:50:31.977Z,98767.53
2022-07-29T14:53:01.654Z,98844.16
2022-07-29T14:55:31.205Z,98838.22
2022-07-29T14:58:08.799Z,98832.50
2022-07-29T15:00:40.365Z,98834.66
2022-07-29T15:03:11.574Z,98848.50
2022-07-29T15:05:42.472Z,98835.50
2022-07-29T15:08:12.191Z,98766.66
2022-07-29T15:10:41.447Z,98778.59
2022-07-29T15:13:10.655Z,98785.41
2022-07-29T15:15:39.855Z,98775.66
2022-07-29T15:18:11.884Z,98771.47
2022-07-29T15:20:42.657Z,98842.13
2022-07-29T15:23:13.948Z,98791.19
2022-07-29T15:25:43.245Z,98834.41
2022-07-29T15:28:12.588Z,98814.38
2022-07-29T15:30:43.288Z,98788.75
2022-07-29T15:33:12.723Z,98818.50
2022-07-29T15:35:43.443Z,98820.66
2022-07-29T15:38:12.681Z,98786.81
2022-07-29T15:41:03.611Z,98783.09
2022-07-29T15:43:32.798Z,98833.47
2022-07-29T15:46:19.250Z,98805.78
2022-07-29T15:48:48.724Z,98839.31
2022-07-29T15:51:19.533Z,98815.09
2022-07-29T15:53:53.585Z,98839.38
2022-07-29T15:56:23.193Z,98835.28
2022-07-29T15:58:53.174Z,98712.91
2022-07-29T16:01:23.590Z,98808.88
2022-07-29T16:03:53.150Z,98759.59
2022-07-29T16:06:24.162Z,98762.16
2022-07-29T16:08:56.195Z,98806.97
2022-07-29T16:11:25.349Z,98824.81
2022-07-29T16:13:54.661Z,98761.59
2022-07-29T16:16:24.932Z,98721.38
2022-07-29T16:18:56.145Z,98793.56
2022-07-29T16:21:26.827Z,98822.94
2022-07-29T16:23:56.099Z,98812.44
2022-07-29T16:26:25.298Z,98784.09
2022-07-29T16:28:54.540Z,98826.56
2022-07-29T16:31:24.410Z,98813.34
2022-07-29T16:33:55.688Z,98767.88
2022-07-29T16:36:26.709Z,98785.19
2022-07-29T16:38:55.885Z,98720.72
2022-07-29T16:41:25.212Z,98822.84
2022-07-29T16:43:55.662Z,98831.41
2022-07-29T16:46:25.857Z,98745.94
2022-07-29T16:48:56.125Z,98824.16
2022-07-29T16:51:27.025Z,98814.47
2022-07-29T16:53:56.236Z,98831.75
2022-07-29T16:56:25.409Z,98757.72
2022-07-29T16:58:54.643Z,98831.53
2022-07-29T17:01:23.870Z,98841.59
2022-07-29T17:04:08.018Z,98789.84
2022-07-29T17:06:40.166Z,98792.22
2022-07-29T17:09:11.376Z,98786.88
2022-07-29T17:11:52.727Z,98763.34
2022-07-29T17:14:25.406Z,98811.41
2022-07-29T17:17:01.186Z,98784.88
2022-07-29T17:19:32.895Z,98807.22
2022-07-29T17:22:10.523Z,98773.66
2022-07-29T17:24:42.277Z,98761.41
2022-07-29T17:27:12.495Z,98766.13
2022-07-29T17:29:42.414Z,98766.47
2022-07-29T17:32:12.495Z,98771.69
2022-07-29T17:34:43.709Z,98836.03
2022-07-29T17:37:15.297Z,98761.13
2022-07-29T17:39:44.901Z,98828.69
2022-07-29T17:42:16.174Z,98812.53
2022-07-29T17:44:46.035Z,98822.31
2022-07-29T17:47:16.091Z,98821.44
2022-07-29T17:49:46.085Z,98820.16
2022-07-29T17:52:18.773Z,98819.63
2022-07-29T17:54:49.668Z,98773.56
2022-07-29T17:57:18.875Z,98779.97
2022-07-29T17:59:48.169Z,98814.41
2022-07-29T18:02:17.425Z,98789.38
2022-07-29T18:04:46.733Z,98817.59
2022-07-29T18:07:21.295Z,98747.38
2022-07-29T18:09:50.610Z,98787.38
2022-07-29T18:12:19.926Z,98807.88
2022-07-29T18:14:49.165Z,98758.97
2022-07-29T18:17:18.874Z,98806.88
2022-07-29T18:19:48.615Z,98715.44
2022-07-29T18:22:17.836Z,98736.78
2022-07-29T18:24:48.607Z,98809.91
2022-07-29T18:27:18.061Z,98805.38
2022-07-29T18:29:47.269Z,98791.75
2022-07-29T18:32:20.623Z,98812.09
2022-07-29T18:34:58.811Z,98727.84
2022-07-29T18:38:01.639Z,98792.75
2022-07-29T18:40:21.268Z,98797.97
2022-07-29T18:42:50.413Z,98773.09
2022-07-29T18:45:20.840Z,98784.50
2022-07-29T18:47:50.756Z,98804.19
2022-07-29T18:50:22.920Z,98799.44
2022-07-29T18:52:55.561Z,98728.31
2022-07-29T18:55:26.657Z,98803.28
2022-07-29T18:57:57.376Z,98708.63
2022-07-29T19:00:28.653Z,98736.38
2022-07-29T19:02:58.615Z,98791.66
2022-07-29T19:05:27.912Z,98798.53
2022-07-29T19:07:57.252Z,98791.81
2022-07-29T19:10:27.969Z,98756.31
2022-07-29T19:12:58.212Z,98701.78
2022-07-29T19:15:27.904Z,98747.06
2022-07-29T19:18:00.994Z,98734.44
2022-07-29T19:20:31.010Z,98783.00
2022-07-29T19:23:00.369Z,98728.81
2022-07-29T19:25:31.090Z,98773.06
2022-07-29T19:28:05.186Z,98761.28
2022-07-29T19:30:34.533Z,98762.44
2022-07-29T19:33:04.747Z,98727.97
2022-07-29T19:35:34.053Z,98755.84
2022-07-29T19:38:03.947Z,98724.88
2022-07-29T19:40:35.093Z,98733.25
2022-07-29T19:43:05.003Z,98765.97
2022-07-29T19:45:55.641Z,98799.59
2022-07-29T19:48:25.486Z,98724.44
2022-07-29T19:50:55.027Z,98781.63
2022-07-29T19:53:24.739Z,98731.50
2022-07-29T19:55:55.940Z,98709.94
2022-07-29T19:58:25.944Z,98802.31
2022-07-29T20:00:56.451Z,98768.78
2022-07-29T20:03:25.787Z,98755.72
2022-07-29T20:05:55.264Z,98790.88
2022-07-29T20:08:24.499Z,98707.22
2022-07-29T20:10:56.445Z,98804.78
2022-07-29T20:13:25.713Z,98797.72
2022-07-29T20:15:55.723Z,98694.41
2022-07-29T20:18:24.959Z,98766.59
2022-07-29T20:20:54.944Z,98786.81
2022-07-29T20:23:24.308Z,98773.50
2022-07-29T20:25:55.217Z,98801.38
2022-07-29T20:28:25.463Z,98730.25
2022-07-29T20:30:54.743Z,98755.50
2022-07-29T20:33:24.688Z,98725.00
2022-07-29T20:35:53.973Z,98723.31
2022-07-29T20:38:23.211Z,98719.41
2022-07-29T20:40:54.450Z,98718.16
2022-07-29T20:43:25.817Z,98720.88
2022-07-29T20:45:55.142Z,98723.25
2022-07-29T20:48:24.514Z,98781.44
2022-07-29T20:50:55.431Z,98783.78
2022-07-29T20:53:25.517Z,98784.09
2022-07-29T20:55:55.438Z,98790.75
2022-07-29T20:58:26.291Z,98710.56
2022-07-29T21:00:55.455Z,98768.72
2022-07-29T21:03:24.710Z,98713.63
2022-07-29T21:05:54.015Z,98752.66
2022-07-29T21:08:23.269Z,98782.91
2022-07-29T21:10:52.574Z,98722.06
2022-07-29T21:13:23.534Z,98782.88
2022-07-29T21:15:59.345Z,98773.66
2022-07-29T21:18:32.656Z,98779.13
2022-07-29T21:21:02.992Z,98717.13
2022-07-29T21:23:32.509Z,98713.44
2022-07-29T21:26:01.899Z,98732.88
2022-07-29T21:28:35.276Z,98751.00
2022-07-29T21:31:09.480Z,98766.16
2022-07-29T21:33:38.991Z,98707.25
2022-07-29T21:38:59.299Z,98768.84
2022-07-29T21:41:28.961Z,98681.91
2022-07-29T21:43:59.524Z,98761.81
2022-07-29T21:46:32.089Z,98739.00
2022-07-29T21:49:01.381Z,98755.03
2022-07-29T21:51:30.718Z,98681.06
2022-07-29T21:53:59.978Z,98738.53
2022-07-29T21:56:29.143Z,98746.25
2022-07-29T21:59:00.784Z,98764.72
2022-07-29T22:01:38.946Z,98743.38
2022-07-29T22:04:08.792Z,98703.78
2022-07-29T22:06:38.075Z,98770.63
2022-07-29T22:09:07.511Z,98660.47
2022-07-29T22:11:37.591Z,98778.78
2022-07-29T22:14:07.762Z,98751.28
2022-07-29T22:16:38.678Z,98726.34
2022-07-29T22:19:07.950Z,98773.44
2022-07-29T22:21:37.190Z,98727.97
2022-07-29T22:24:06.980Z,98736.00
2022-07-29T22:26:39.179Z,98770.91
2022-07-29T22:29:08.704Z,98701.31
2022-07-29T22:31:40.412Z,98764.03
2022-07-29T22:34:13.182Z,98708.66
2022-07-29T22:36:43.798Z,98770.38
2022-07-29T22:39:15.545Z,98711.53
2022-07-29T22:41:45.379Z,98771.81
2022-07-29T22:44:14.648Z,98776.63
2022-07-29T22:46:45.460Z,98707.50
2022-07-29T22:49:14.840Z,98705.09
2022-07-29T22:51:44.099Z,98736.94
2022-07-29T22:54:13.350Z,98743.81
2022-07-29T22:56:42.702Z,98695.81
2022-07-29T22:59:11.975Z,98703.72
2022-07-29T23:01:41.273Z,98767.53
2022-07-29T23:04:12.497Z,98757.13
2022-07-29T23:06:41.766Z,98768.22
2022-07-29T23:09:10.946Z,98769.91
2022-07-29T23:11:40.153Z,98702.84
2022-07-29T23:14:09.632Z,98710.81
2022-07-29T23:16:50.124Z,98712.50
2022-07-29T23:19:20.913Z,98730.41
2022-07-29T23:21:50.154Z,98745.31
2022-07-29T23:24:19.340Z,98720.00
2022-07-29T23:26:48.533Z,98775.94
2022-07-29T23:29:18.746Z,98708.31
2022-07-29T23:31:48.444Z,98772.13
2022-07-29T23:34:17.991Z,98673.34
2022-07-29T23:36:48.796Z,98686.50
2022-07-29T23:39:18.069Z,98770.69
2022-07-29T23:41:47.305Z,98771.19
2022-07-29T23:44:16.722Z,98775.44
2022-07-29T23:46:46.040Z,98721.63
2022-07-29T23:49:15.431Z,98749.25
2022-07-29T23:51:44.696Z,98740.53
2022-07-29T23:54:15.418Z,98779.78
2022-07-29T23:56:44.632Z,98778.63
2022-07-29T23:59:15.709Z,98786.53
